sensor_id;sensor_type;location;lat;lon;timestamp;P1;durP1;ratioP1;P2;durP2;ratioP2
15748;SDS011;7976;52.526;13.326;2023-02-28T00:00:01;10.60;;;4.00;;
15748;SDS011;7976;52.526;13.326;2023-02-28T00:02:34;11.63;;;4.07;;
15748;SDS011;7976;52.526;13.326;2023-02-28T00:05:03;13.43;;;3.72;;
15748;SDS011;7976;52.526;13.326;2023-02-28T00:07:35;9.93;;;3.40;;
15748;SDS011;7976;52.526;13.326;2023-02-28T00:10:03;10.00;;;3.45;;
15748;SDS011;7976;52.526;13.326;2023-02-28T00:12:33;10.25;;;3.38;;
15748;SDS011;7976;52.526;13.326;2023-02-28T00:15:01;12.55;;;3.70;;
15748;SDS011;7976;52.526;13.326;2023-02-28T00:17:32;11.70;;;4.43;;
15748;SDS011;7976;52.526;13.326;2023-02-28T00:20:00;11.82;;;4.13;;
15748;SDS011;7976;52.526;13.326;2023-02-28T00:22:37;11.60;;;4.28;;
15748;SDS011;7976;52.526;13.326;2023-02-28T00:25:16;13.60;;;4.38;;
15748;SDS011;7976;52.526;13.326;2023-02-28T00:27:54;13.40;;;4.30;;
15748;SDS011;7976;52.526;13.326;2023-02-28T00:30:42;12.07;;;3.50;;
15748;SDS011;7976;52.526;13.326;2023-02-28T00:33:12;11.38;;;3.63;;
15748;SDS011;7976;52.526;13.326;2023-02-28T00:35:39;11.25;;;3.65;;
15748;SDS011;7976;52.526;13.326;2023-02-28T00:38:11;13.73;;;4.20;;
15748;SDS011;7976;52.526;13.326;2023-02-28T00:40:43;11.35;;;3.10;;
15748;SDS011;7976;52.526;13.326;2023-02-28T00:43:13;13.05;;;3.35;;
15748;SDS011;7976;52.526;13.326;2023-02-28T00:45:43;13.27;;;3.90;;
15748;SDS011;7976;52.526;13.326;2023-02-28T00:48:10;12.73;;;3.70;;
15748;SDS011;7976;52.526;13.326;2023-02-28T00:50:38;11.95;;;3.70;;
15748;SDS011;7976;52.526;13.326;2023-02-28T00:53:11;9.70;;;3.05;;
15748;SDS011;7976;52.526;13.326;2023-02-28T00:55:38;11.88;;;3.40;;
15748;SDS011;7976;52.526;13.326;2023-02-28T00:58:06;11.35;;;3.13;;
15748;SDS011;7976;52.526;13.326;2023-02-28T01:00:33;11.15;;;3.58;;
15748;SDS011;7976;52.526;13.326;2023-02-28T01:03:00;11.23;;;3.60;;
15748;SDS011;7976;52.526;13.326;2023-02-28T01:05:29;13.75;;;3.95;;
15748;SDS011;7976;52.526;13.326;2023-02-28T01:07:56;9.32;;;3.20;;
15748;SDS011;7976;52.526;13.326;2023-02-28T01:10:34;9.23;;;3.33;;
15748;SDS011;7976;52.526;13.326;2023-02-28T01:13:02;12.10;;;4.00;;
15748;SDS011;7976;52.526;13.326;2023-02-28T01:15:31;11.20;;;3.53;;
15748;SDS011;7976;52.526;13.326;2023-02-28T01:17:58;9.65;;;3.45;;
15748;SDS011;7976;52.526;13.326;2023-02-28T01:20:25;11.20;;;3.22;;
15748;SDS011;7976;52.526;13.326;2023-02-28T01:23:00;14.07;;;3.70;;
15748;SDS011;7976;52.526;13.326;2023-02-28T01:25:27;11.50;;;3.88;;
15748;SDS011;7976;52.526;13.326;2023-02-28T01:27:58;11.52;;;3.50;;
15748;SDS011;7976;52.526;13.326;2023-02-28T01:30:27;9.73;;;3.22;;
15748;SDS011;7976;52.526;13.326;2023-02-28T01:32:56;10.75;;;3.25;;
15748;SDS011;7976;52.526;13.326;2023-02-28T01:35:24;9.57;;;3.10;;
15748;SDS011;7976;52.526;13.326;2023-02-28T01:37:51;11.00;;;3.17;;
15748;SDS011;7976;52.526;13.326;2023-02-28T01:40:19;13.00;;;3.60;;
15748;SDS011;7976;52.526;13.326;2023-02-28T01:42:50;13.32;;;3.50;;
15748;SDS011;7976;52.526;13.326;2023-02-28T01:45:19;10.70;;;3.10;;
15748;SDS011;7976;52.526;13.326;2023-02-28T01:47:52;11.57;;;3.70;;
15748;SDS011;7976;52.526;13.326;2023-02-28T01:50:24;11.73;;;3.47;;
15748;SDS011;7976;52.526;13.326;2023-02-28T01:52:58;14.60;;;4.35;;
15748;SDS011;7976;52.526;13.326;2023-02-28T01:55:31;9.93;;;3.25;;
15748;SDS011;7976;52.526;13.326;2023-02-28T01:58:00;18.23;;;4.07;;
15748;SDS011;7976;52.526;13.326;2023-02-28T02:00:32;13.25;;;3.90;;
15748;SDS011;7976;52.526;13.326;2023-02-28T02:03:01;10.88;;;3.60;;
15748;SDS011;7976;52.526;13.326;2023-02-28T02:05:34;10.95;;;3.72;;
15748;SDS011;7976;52.526;13.326;2023-02-28T02:08:06;11.82;;;3.70;;
15748;SDS011;7976;52.526;13.326;2023-02-28T02:10:39;12.90;;;3.58;;
15748;SDS011;7976;52.526;13.326;2023-02-28T02:13:19;11.27;;;3.00;;
15748;SDS011;7976;52.526;13.326;2023-02-28T02:16:10;13.93;;;4.10;;
15748;SDS011;7976;52.526;13.326;2023-02-28T02:18:57;11.75;;;3.38;;
15748;SDS011;7976;52.526;13.326;2023-02-28T02:21:51;13.10;;;3.58;;
15748;SDS011;7976;52.526;13.326;2023-02-28T02:25:09;11.27;;;3.83;;
15748;SDS011;7976;52.526;13.326;2023-02-28T02:27:59;12.18;;;3.95;;
15748;SDS011;7976;52.526;13.326;2023-02-28T02:34:54;12.00;;;3.08;;
15748;SDS011;7976;52.526;13.326;2023-02-28T02:37:41;9.27;;;3.10;;
15748;SDS011;7976;52.526;13.326;2023-02-28T02:40:17;10.40;;;3.40;;
15748;SDS011;7976;52.526;13.326;2023-02-28T02:42:53;10.82;;;2.97;;
15748;SDS011;7976;52.526;13.326;2023-02-28T02:45:46;8.93;;;2.90;;
15748;SDS011;7976;52.526;13.326;2023-02-28T02:48:21;8.35;;;3.03;;
15748;SDS011;7976;52.526;13.326;2023-02-28T02:50:58;13.55;;;3.67;;
15748;SDS011;7976;52.526;13.326;2023-02-28T02:53:30;10.02;;;2.97;;
15748;SDS011;7976;52.526;13.326;2023-02-28T02:56:04;9.60;;;3.30;;
15748;SDS011;7976;52.526;13.326;2023-02-28T02:58:35;11.05;;;3.20;;
15748;SDS011;7976;52.526;13.326;2023-02-28T03:01:10;9.35;;;2.75;;
15748;SDS011;7976;52.526;13.326;2023-02-28T03:03:52;9.77;;;3.30;;
15748;SDS011;7976;52.526;13.326;2023-02-28T03:06:23;11.13;;;3.38;;
15748;SDS011;7976;52.526;13.326;2023-02-28T03:08:50;12.52;;;3.40;;
15748;SDS011;7976;52.526;13.326;2023-02-28T03:11:18;10.73;;;3.10;;
15748;SDS011;7976;52.526;13.326;2023-02-28T03:13:50;12.98;;;3.83;;
15748;SDS011;7976;52.526;13.326;2023-02-28T03:16:45;10.00;;;3.17;;
15748;SDS011;7976;52.526;13.326;2023-02-28T03:19:31;11.18;;;3.38;;
15748;SDS011;7976;52.526;13.326;2023-02-28T03:22:24;10.40;;;3.40;;
15748;SDS011;7976;52.526;13.326;2023-02-28T03:25:11;10.70;;;3.35;;
15748;SDS011;7976;52.526;13.326;2023-02-28T03:27:53;10.25;;;3.50;;
15748;SDS011;7976;52.526;13.326;2023-02-28T03:30:32;9.60;;;3.35;;
15748;SDS011;7976;52.526;13.326;2023-02-28T03:33:08;9.18;;;3.15;;
15748;SDS011;7976;52.526;13.326;2023-02-28T03:35:42;12.27;;;4.03;;
15748;SDS011;7976;52.526;13.326;2023-02-28T03:38:20;10.65;;;3.65;;
15748;SDS011;7976;52.526;13.326;2023-02-28T03:40:58;12.05;;;3.58;;
15748;SDS011;7976;52.526;13.326;2023-02-28T03:43:35;11.88;;;3.35;;
15748;SDS011;7976;52.526;13.326;2023-02-28T03:46:12;11.75;;;3.53;;
15748;SDS011;7976;52.526;13.326;2023-02-28T03:48:49;11.30;;;3.47;;
15748;SDS011;7976;52.526;13.326;2023-02-28T03:51:22;12.98;;;3.60;;
15748;SDS011;7976;52.526;13.326;2023-02-28T03:53:56;11.73;;;4.10;;
15748;SDS011;7976;52.526;13.326;2023-02-28T03:56:33;15.40;;;4.72;;
15748;SDS011;7976;52.526;13.326;2023-02-28T03:59:06;11.68;;;3.95;;
15748;SDS011;7976;52.526;13.326;2023-02-28T04:01:41;10.52;;;3.53;;
15748;SDS011;7976;52.526;13.326;2023-02-28T04:04:10;9.82;;;3.40;;
15748;SDS011;7976;52.526;13.326;2023-02-28T04:06:39;12.40;;;4.03;;
15748;SDS011;7976;52.526;13.326;2023-02-28T04:09:09;10.50;;;3.83;;
15748;SDS011;7976;52.526;13.326;2023-02-28T04:11:40;8.73;;;3.30;;
15748;SDS011;7976;52.526;13.326;2023-02-28T04:14:09;12.23;;;3.47;;
15748;SDS011;7976;52.526;13.326;2023-02-28T04:16:38;12.43;;;3.83;;
15748;SDS011;7976;52.526;13.326;2023-02-28T04:19:07;13.90;;;3.72;;
15748;SDS011;7976;52.526;13.326;2023-02-28T04:21:37;12.40;;;4.00;;
15748;SDS011;7976;52.526;13.326;2023-02-28T04:24:08;10.40;;;3.67;;
15748;SDS011;7976;52.526;13.326;2023-02-28T04:26:40;12.27;;;3.63;;
15748;SDS011;7976;52.526;13.326;2023-02-28T04:29:09;13.18;;;3.50;;
15748;SDS011;7976;52.526;13.326;2023-02-28T04:31:38;11.40;;;3.80;;
15748;SDS011;7976;52.526;13.326;2023-02-28T04:34:06;12.30;;;4.07;;
15748;SDS011;7976;52.526;13.326;2023-02-28T04:36:33;11.57;;;3.67;;
15748;SDS011;7976;52.526;13.326;2023-02-28T04:39:00;12.68;;;4.05;;
15748;SDS011;7976;52.526;13.326;2023-02-28T04:41:28;12.20;;;3.87;;
15748;SDS011;7976;52.526;13.326;2023-02-28T04:43:55;15.95;;;4.15;;
15748;SDS011;7976;52.526;13.326;2023-02-28T04:46:22;11.20;;;3.90;;
15748;SDS011;7976;52.526;13.326;2023-02-28T04:48:49;11.25;;;3.63;;
15748;SDS011;7976;52.526;13.326;2023-02-28T04:51:16;14.98;;;4.35;;
15748;SDS011;7976;52.526;13.326;2023-02-28T04:53:45;13.53;;;3.70;;
15748;SDS011;7976;52.526;13.326;2023-02-28T04:56:14;12.60;;;3.63;;
15748;SDS011;7976;52.526;13.326;2023-02-28T04:58:44;10.70;;;3.65;;
15748;SDS011;7976;52.526;13.326;2023-02-28T05:01:19;12.80;;;4.25;;
15748;SDS011;7976;52.526;13.326;2023-02-28T05:03:49;13.10;;;4.03;;
15748;SDS011;7976;52.526;13.326;2023-02-28T05:06:18;10.40;;;3.65;;
15748;SDS011;7976;52.526;13.326;2023-02-28T05:08:46;13.32;;;4.00;;
15748;SDS011;7976;52.526;13.326;2023-02-28T05:11:15;11.82;;;3.85;;
15748;SDS011;7976;52.526;13.326;2023-02-28T05:13:46;11.48;;;3.75;;
15748;SDS011;7976;52.526;13.326;2023-02-28T05:16:13;12.30;;;4.50;;
15748;SDS011;7976;52.526;13.326;2023-02-28T05:18:40;12.35;;;4.32;;
15748;SDS011;7976;52.526;13.326;2023-02-28T05:21:22;12.00;;;4.37;;
15748;SDS011;7976;52.526;13.326;2023-02-28T05:23:54;16.33;;;4.38;;
15748;SDS011;7976;52.526;13.326;2023-02-28T05:26:23;12.37;;;4.43;;
15748;SDS011;7976;52.526;13.326;2023-02-28T05:28:52;14.07;;;4.20;;
15748;SDS011;7976;52.526;13.326;2023-02-28T05:31:20;13.18;;;4.38;;
15748;SDS011;7976;52.526;13.326;2023-02-28T05:33:48;16.10;;;4.60;;
15748;SDS011;7976;52.526;13.326;2023-02-28T05:36:14;16.50;;;4.77;;
15748;SDS011;7976;52.526;13.326;2023-02-28T05:38:41;15.53;;;4.70;;
15748;SDS011;7976;52.526;13.326;2023-02-28T05:41:08;12.05;;;4.68;;
15748;SDS011;7976;52.526;13.326;2023-02-28T05:43:37;13.68;;;4.70;;
15748;SDS011;7976;52.526;13.326;2023-02-28T05:46:05;16.80;;;5.23;;
15748;SDS011;7976;52.526;13.326;2023-02-28T05:48:35;11.43;;;4.20;;
15748;SDS011;7976;52.526;13.326;2023-02-28T05:51:04;12.57;;;4.53;;
15748;SDS011;7976;52.526;13.326;2023-02-28T05:53:32;11.88;;;4.15;;
15748;SDS011;7976;52.526;13.326;2023-02-28T05:56:00;13.20;;;4.97;;
15748;SDS011;7976;52.526;13.326;2023-02-28T05:58:30;15.03;;;4.77;;
15748;SDS011;7976;52.526;13.326;2023-02-28T06:00:57;14.50;;;4.37;;
15748;SDS011;7976;52.526;13.326;2023-02-28T06:03:26;13.90;;;4.57;;
15748;SDS011;7976;52.526;13.326;2023-02-28T06:05:53;17.67;;;4.50;;
15748;SDS011;7976;52.526;13.326;2023-02-28T06:08:20;12.47;;;4.53;;
15748;SDS011;7976;52.526;13.326;2023-02-28T06:10:47;13.57;;;4.40;;
15748;SDS011;7976;52.526;13.326;2023-02-28T06:13:14;11.40;;;4.63;;
15748;SDS011;7976;52.526;13.326;2023-02-28T06:15:40;13.85;;;4.70;;
15748;SDS011;7976;52.526;13.326;2023-02-28T06:18:07;14.13;;;5.50;;
15748;SDS011;7976;52.526;13.326;2023-02-28T06:20:35;18.10;;;6.20;;
15748;SDS011;7976;52.526;13.326;2023-02-28T06:23:02;14.93;;;5.93;;
15748;SDS011;7976;52.526;13.326;2023-02-28T06:25:32;17.77;;;6.67;;
15748;SDS011;7976;52.526;13.326;2023-02-28T06:27:59;17.90;;;6.40;;
15748;SDS011;7976;52.526;13.326;2023-02-28T06:30:26;18.00;;;5.87;;
15748;SDS011;7976;52.526;13.326;2023-02-28T06:32:56;20.27;;;6.57;;
15748;SDS011;7976;52.526;13.326;2023-02-28T06:35:22;21.87;;;6.90;;
15748;SDS011;7976;52.526;13.326;2023-02-28T06:37:51;22.33;;;7.07;;
15748;SDS011;7976;52.526;13.326;2023-02-28T06:40:17;16.47;;;6.50;;
15748;SDS011;7976;52.526;13.326;2023-02-28T06:42:45;18.47;;;6.53;;
15748;SDS011;7976;52.526;13.326;2023-02-28T06:45:12;19.67;;;7.13;;
15748;SDS011;7976;52.526;13.326;2023-02-28T06:47:39;19.87;;;7.10;;
15748;SDS011;7976;52.526;13.326;2023-02-28T06:50:09;19.03;;;6.00;;
15748;SDS011;7976;52.526;13.326;2023-02-28T06:52:38;18.67;;;6.47;;
15748;SDS011;7976;52.526;13.326;2023-02-28T06:55:07;19.47;;;6.87;;
15748;SDS011;7976;52.526;13.326;2023-02-28T06:57:35;19.00;;;7.23;;
15748;SDS011;7976;52.526;13.326;2023-02-28T07:00:04;20.20;;;7.75;;
15748;SDS011;7976;52.526;13.326;2023-02-28T07:02:34;25.27;;;8.47;;
15748;SDS011;7976;52.526;13.326;2023-02-28T07:05:02;18.10;;;6.50;;
15748;SDS011;7976;52.526;13.326;2023-02-28T07:07:33;17.43;;;6.67;;
15748;SDS011;7976;52.526;13.326;2023-02-28T07:10:08;16.97;;;7.07;;
15748;SDS011;7976;52.526;13.326;2023-02-28T07:12:37;19.43;;;6.97;;
15748;SDS011;7976;52.526;13.326;2023-02-28T07:15:09;18.60;;;6.83;;
15748;SDS011;7976;52.526;13.326;2023-02-28T07:17:37;21.03;;;7.43;;
15748;SDS011;7976;52.526;13.326;2023-02-28T07:20:04;19.67;;;7.07;;
15748;SDS011;7976;52.526;13.326;2023-02-28T07:22:32;20.63;;;7.90;;
15748;SDS011;7976;52.526;13.326;2023-02-28T07:25:00;28.30;;;7.63;;
15748;SDS011;7976;52.526;13.326;2023-02-28T07:27:37;21.05;;;7.78;;
15748;SDS011;7976;52.526;13.326;2023-02-28T07:30:07;26.80;;;7.87;;
15748;SDS011;7976;52.526;13.326;2023-02-28T07:32:37;22.02;;;7.20;;
15748;SDS011;7976;52.526;13.326;2023-02-28T07:35:07;24.95;;;8.05;;
15748;SDS011;7976;52.526;13.326;2023-02-28T07:37:34;20.42;;;8.45;;
15748;SDS011;7976;52.526;13.326;2023-02-28T07:40:09;18.37;;;7.00;;
15748;SDS011;7976;52.526;13.326;2023-02-28T07:42:39;24.37;;;9.70;;
15748;SDS011;7976;52.526;13.326;2023-02-28T07:45:08;16.63;;;6.90;;
15748;SDS011;7976;52.526;13.326;2023-02-28T07:47:37;24.70;;;8.50;;
15748;SDS011;7976;52.526;13.326;2023-02-28T07:50:12;20.13;;;6.82;;
15748;SDS011;7976;52.526;13.326;2023-02-28T07:52:41;22.35;;;7.03;;
15748;SDS011;7976;52.526;13.326;2023-02-28T07:55:09;22.05;;;7.40;;
15748;SDS011;7976;52.526;13.326;2023-02-28T07:57:38;18.88;;;7.30;;
15748;SDS011;7976;52.526;13.326;2023-02-28T08:00:06;18.98;;;6.07;;
15748;SDS011;7976;52.526;13.326;2023-02-28T08:02:38;23.70;;;7.78;;
15748;SDS011;7976;52.526;13.326;2023-02-28T08:05:06;17.20;;;6.65;;
15748;SDS011;7976;52.526;13.326;2023-02-28T08:07:33;16.30;;;7.30;;
15748;SDS011;7976;52.526;13.326;2023-02-28T08:10:00;19.75;;;6.95;;
15748;SDS011;7976;52.526;13.326;2023-02-28T08:12:29;20.08;;;7.38;;
15748;SDS011;7976;52.526;13.326;2023-02-28T08:14:56;18.42;;;6.80;;
15748;SDS011;7976;52.526;13.326;2023-02-28T08:17:22;18.80;;;5.82;;
15748;SDS011;7976;52.526;13.326;2023-02-28T08:19:49;14.52;;;5.72;;
15748;SDS011;7976;52.526;13.326;2023-02-28T08:22:16;9.38;;;2.95;;
15748;SDS011;7976;52.526;13.326;2023-02-28T08:24:43;10.07;;;3.05;;
15748;SDS011;7976;52.526;13.326;2023-02-28T08:27:10;8.57;;;2.40;;
15748;SDS011;7976;52.526;13.326;2023-02-28T08:29:39;10.18;;;2.38;;
15748;SDS011;7976;52.526;13.326;2023-02-28T08:32:06;7.53;;;2.33;;
15748;SDS011;7976;52.526;13.326;2023-02-28T08:34:38;7.13;;;2.00;;
15748;SDS011;7976;52.526;13.326;2023-02-28T08:37:06;8.93;;;2.92;;
15748;SDS011;7976;52.526;13.326;2023-02-28T08:39:41;6.13;;;2.17;;
15748;SDS011;7976;52.526;13.326;2023-02-28T08:42:08;9.50;;;2.40;;
15748;SDS011;7976;52.526;13.326;2023-02-28T08:44:34;8.68;;;2.83;;
15748;SDS011;7976;52.526;13.326;2023-02-28T08:47:03;8.52;;;2.17;;
15748;SDS011;7976;52.526;13.326;2023-02-28T08:49:30;5.80;;;1.80;;
15748;SDS011;7976;52.526;13.326;2023-02-28T08:51:58;8.77;;;2.38;;
15748;SDS011;7976;52.526;13.326;2023-02-28T08:54:27;9.85;;;2.65;;
15748;SDS011;7976;52.526;13.326;2023-02-28T08:56:58;8.82;;;2.67;;
15748;SDS011;7976;52.526;13.326;2023-02-28T08:59:25;8.27;;;2.50;;
15748;SDS011;7976;52.526;13.326;2023-02-28T09:01:52;9.38;;;2.30;;
15748;SDS011;7976;52.526;13.326;2023-02-28T09:04:20;8.45;;;2.70;;
15748;SDS011;7976;52.526;13.326;2023-02-28T09:06:47;7.95;;;2.33;;
15748;SDS011;7976;52.526;13.326;2023-02-28T09:09:14;7.20;;;2.10;;
15748;SDS011;7976;52.526;13.326;2023-02-28T09:11:41;8.00;;;2.17;;
15748;SDS011;7976;52.526;13.326;2023-02-28T09:14:08;8.00;;;2.10;;
15748;SDS011;7976;52.526;13.326;2023-02-28T09:16:35;7.80;;;2.20;;
15748;SDS011;7976;52.526;13.326;2023-02-28T09:19:02;8.07;;;2.20;;
15748;SDS011;7976;52.526;13.326;2023-02-28T09:21:30;5.72;;;2.10;;
15748;SDS011;7976;52.526;13.326;2023-02-28T09:23:57;7.95;;;2.00;;
15748;SDS011;7976;52.526;13.326;2023-02-28T09:26:24;5.60;;;1.88;;
15748;SDS011;7976;52.526;13.326;2023-02-28T09:28:54;8.43;;;1.98;;
15748;SDS011;7976;52.526;13.326;2023-02-28T09:31:21;6.80;;;1.75;;
15748;SDS011;7976;52.526;13.326;2023-02-28T09:33:54;5.97;;;1.75;;
15748;SDS011;7976;52.526;13.326;2023-02-28T09:36:24;6.80;;;1.98;;
15748;SDS011;7976;52.526;13.326;2023-02-28T09:38:54;5.70;;;1.85;;
15748;SDS011;7976;52.526;13.326;2023-02-28T09:41:22;5.82;;;1.65;;
15748;SDS011;7976;52.526;13.326;2023-02-28T09:43:53;8.43;;;2.35;;
15748;SDS011;7976;52.526;13.326;2023-02-28T09:46:27;5.45;;;1.63;;
15748;SDS011;7976;52.526;13.326;2023-02-28T09:49:00;8.25;;;1.92;;
15748;SDS011;7976;52.526;13.326;2023-02-28T09:54:19;8.80;;;1.90;;
15748;SDS011;7976;52.526;13.326;2023-02-28T09:56:50;8.73;;;2.17;;
15748;SDS011;7976;52.526;13.326;2023-02-28T09:59:25;6.78;;;1.92;;
15748;SDS011;7976;52.526;13.326;2023-02-28T10:02:10;8.88;;;2.20;;
15748;SDS011;7976;52.526;13.326;2023-02-28T10:05:02;9.75;;;2.55;;
15748;SDS011;7976;52.526;13.326;2023-02-28T10:07:39;10.93;;;2.30;;
15748;SDS011;7976;52.526;13.326;2023-02-28T10:10:26;6.40;;;2.00;;
15748;SDS011;7976;52.526;13.326;2023-02-28T10:16:16;8.20;;;2.55;;
15748;SDS011;7976;52.526;13.326;2023-02-28T10:18:52;8.77;;;2.70;;
15748;SDS011;7976;52.526;13.326;2023-02-28T10:21:25;8.95;;;2.35;;
15748;SDS011;7976;52.526;13.326;2023-02-28T10:24:02;9.38;;;2.53;;
15748;SDS011;7976;52.526;13.326;2023-02-28T10:26:38;8.18;;;2.17;;
15748;SDS011;7976;52.526;13.326;2023-02-28T10:29:09;12.25;;;2.33;;
15748;SDS011;7976;52.526;13.326;2023-02-28T10:31:36;7.13;;;2.17;;
15748;SDS011;7976;52.526;13.326;2023-02-28T10:34:05;7.65;;;2.42;;
15748;SDS011;7976;52.526;13.326;2023-02-28T10:36:33;7.40;;;2.20;;
15748;SDS011;7976;52.526;13.326;2023-02-28T10:39:00;7.07;;;2.50;;
15748;SDS011;7976;52.526;13.326;2023-02-28T10:41:27;7.68;;;2.10;;
15748;SDS011;7976;52.526;13.326;2023-02-28T10:44:14;11.32;;;3.35;;
15748;SDS011;7976;52.526;13.326;2023-02-28T10:46:46;8.43;;;2.60;;
15748;SDS011;7976;52.526;13.326;2023-02-28T10:49:15;14.65;;;5.68;;
15748;SDS011;7976;52.526;13.326;2023-02-28T10:51:47;11.80;;;3.95;;
15748;SDS011;7976;52.526;13.326;2023-02-28T10:54:19;10.80;;;2.90;;
15748;SDS011;7976;52.526;13.326;2023-02-28T10:59:47;9.75;;;2.85;;
15748;SDS011;7976;52.526;13.326;2023-02-28T11:02:29;12.40;;;4.43;;
15748;SDS011;7976;52.526;13.326;2023-02-28T11:05:10;13.18;;;3.42;;
15748;SDS011;7976;52.526;13.326;2023-02-28T11:07:53;8.25;;;2.40;;
15748;SDS011;7976;52.526;13.326;2023-02-28T11:10:24;6.78;;;1.92;;
15748;SDS011;7976;52.526;13.326;2023-02-28T11:12:57;8.63;;;2.10;;
15748;SDS011;7976;52.526;13.326;2023-02-28T11:15:30;9.48;;;3.08;;
15748;SDS011;7976;52.526;13.326;2023-02-28T11:18:01;9.00;;;2.70;;
15748;SDS011;7976;52.526;13.326;2023-02-28T11:20:47;8.43;;;2.17;;
15748;SDS011;7976;52.526;13.326;2023-02-28T11:23:16;9.95;;;2.97;;
15748;SDS011;7976;52.526;13.326;2023-02-28T11:25:46;7.50;;;2.25;;
15748;SDS011;7976;52.526;13.326;2023-02-28T11:28:26;8.88;;;2.65;;
15748;SDS011;7976;52.526;13.326;2023-02-28T11:31:01;6.90;;;2.03;;
15748;SDS011;7976;52.526;13.326;2023-02-28T11:33:41;9.45;;;2.55;;
15748;SDS011;7976;52.526;13.326;2023-02-28T11:36:11;8.52;;;2.80;;
15748;SDS011;7976;52.526;13.326;2023-02-28T11:38:42;6.70;;;2.10;;
15748;SDS011;7976;52.526;13.326;2023-02-28T11:41:13;9.07;;;1.98;;
15748;SDS011;7976;52.526;13.326;2023-02-28T11:44:32;8.52;;;2.40;;
15748;SDS011;7976;52.526;13.326;2023-02-28T11:47:23;8.85;;;2.58;;
15748;SDS011;7976;52.526;13.326;2023-02-28T11:50:04;8.32;;;2.83;;
15748;SDS011;7976;52.526;13.326;2023-02-28T11:52:48;8.45;;;2.78;;
15748;SDS011;7976;52.526;13.326;2023-02-28T11:55:20;11.23;;;2.50;;
15748;SDS011;7976;52.526;13.326;2023-02-28T11:57:55;9.68;;;3.15;;
15748;SDS011;7976;52.526;13.326;2023-02-28T12:00:39;10.25;;;2.97;;
15748;SDS011;7976;52.526;13.326;2023-02-28T12:03:31;9.25;;;2.50;;
15748;SDS011;7976;52.526;13.326;2023-02-28T12:06:14;12.50;;;2.70;;
15748;SDS011;7976;52.526;13.326;2023-02-28T12:08:53;38.83;;;16.70;;
15748;SDS011;7976;52.526;13.326;2023-02-28T12:11:40;21.60;;;8.18;;
15748;SDS011;7976;52.526;13.326;2023-02-28T12:14:22;24.90;;;10.88;;
15748;SDS011;7976;52.526;13.326;2023-02-28T12:17:15;23.75;;;9.80;;
15748;SDS011;7976;52.526;13.326;2023-02-28T12:20:05;9.85;;;3.55;;
15748;SDS011;7976;52.526;13.326;2023-02-28T12:22:46;9.60;;;2.70;;
15748;SDS011;7976;52.526;13.326;2023-02-28T12:25:43;11.82;;;3.40;;
15748;SDS011;7976;52.526;13.326;2023-02-28T12:28:27;10.25;;;3.08;;
15748;SDS011;7976;52.526;13.326;2023-02-28T12:31:00;9.82;;;2.50;;
15748;SDS011;7976;52.526;13.326;2023-02-28T12:33:36;8.38;;;2.75;;
15748;SDS011;7976;52.526;13.326;2023-02-28T12:36:13;8.80;;;2.60;;
15748;SDS011;7976;52.526;13.326;2023-02-28T12:38:47;11.70;;;3.00;;
15748;SDS011;7976;52.526;13.326;2023-02-28T12:41:21;9.93;;;2.80;;
15748;SDS011;7976;52.526;13.326;2023-02-28T12:43:58;7.07;;;2.38;;
15748;SDS011;7976;52.526;13.326;2023-02-28T12:46:30;8.00;;;2.65;;
15748;SDS011;7976;52.526;13.326;2023-02-28T12:49:04;12.93;;;4.03;;
15748;SDS011;7976;52.526;13.326;2023-02-28T12:51:45;10.57;;;3.17;;
15748;SDS011;7976;52.526;13.326;2023-02-28T12:54:16;10.02;;;3.13;;
15748;SDS011;7976;52.526;13.326;2023-02-28T12:56:54;9.95;;;2.83;;
15748;SDS011;7976;52.526;13.326;2023-02-28T12:59:34;8.00;;;2.95;;
15748;SDS011;7976;52.526;13.326;2023-02-28T13:02:20;13.13;;;4.88;;
15748;SDS011;7976;52.526;13.326;2023-02-28T13:05:32;14.07;;;5.30;;
15748;SDS011;7976;52.526;13.326;2023-02-28T13:11:40;8.55;;;2.60;;
15748;SDS011;7976;52.526;13.326;2023-02-28T13:14:18;12.10;;;3.35;;
15748;SDS011;7976;52.526;13.326;2023-02-28T13:17:02;14.38;;;3.10;;
15748;SDS011;7976;52.526;13.326;2023-02-28T13:19:39;10.55;;;3.05;;
15748;SDS011;7976;52.526;13.326;2023-02-28T13:22:19;9.48;;;3.10;;
15748;SDS011;7976;52.526;13.326;2023-02-28T13:25:13;9.68;;;3.50;;
15748;SDS011;7976;52.526;13.326;2023-02-28T13:35:14;11.45;;;3.47;;
15748;SDS011;7976;52.526;13.326;2023-02-28T13:38:15;10.13;;;3.30;;
15748;SDS011;7976;52.526;13.326;2023-02-28T13:44:13;18.00;;;6.30;;
15748;SDS011;7976;52.526;13.326;2023-02-28T13:49:49;28.33;;;10.55;;
15748;SDS011;7976;52.526;13.326;2023-02-28T13:52:18;12.35;;;4.05;;
15748;SDS011;7976;52.526;13.326;2023-02-28T13:55:03;13.93;;;5.28;;
15748;SDS011;7976;52.526;13.326;2023-02-28T13:57:55;15.55;;;5.53;;
15748;SDS011;7976;52.526;13.326;2023-02-28T14:00:42;13.93;;;4.78;;
15748;SDS011;7976;52.526;13.326;2023-02-28T14:03:42;13.30;;;5.05;;
15748;SDS011;7976;52.526;13.326;2023-02-28T14:06:26;13.93;;;5.45;;
15748;SDS011;7976;52.526;13.326;2023-02-28T14:08:58;11.93;;;4.15;;
15748;SDS011;7976;52.526;13.326;2023-02-28T14:11:30;11.52;;;4.20;;
15748;SDS011;7976;52.526;13.326;2023-02-28T14:14:01;11.23;;;3.90;;
15748;SDS011;7976;52.526;13.326;2023-02-28T14:16:35;12.82;;;3.67;;
15748;SDS011;7976;52.526;13.326;2023-02-28T14:19:10;10.20;;;3.75;;
15748;SDS011;7976;52.526;13.326;2023-02-28T14:21:47;12.85;;;4.18;;
15748;SDS011;7976;52.526;13.326;2023-02-28T14:24:40;13.10;;;3.90;;
15748;SDS011;7976;52.526;13.326;2023-02-28T14:27:37;11.68;;;5.13;;
15748;SDS011;7976;52.526;13.326;2023-02-28T14:30:25;13.00;;;5.18;;
15748;SDS011;7976;52.526;13.326;2023-02-28T14:36:04;9.52;;;3.20;;
15748;SDS011;7976;52.526;13.326;2023-02-28T14:38:43;13.98;;;4.95;;
15748;SDS011;7976;52.526;13.326;2023-02-28T14:41:17;9.02;;;3.63;;
15748;SDS011;7976;52.526;13.326;2023-02-28T14:43:49;10.23;;;3.17;;
15748;SDS011;7976;52.526;13.326;2023-02-28T14:46:23;9.60;;;2.88;;
15748;SDS011;7976;52.526;13.326;2023-02-28T14:49:01;12.82;;;4.75;;
15748;SDS011;7976;52.526;13.326;2023-02-28T14:51:31;10.20;;;3.50;;
15748;SDS011;7976;52.526;13.326;2023-02-28T14:53:59;42.95;;;18.70;;
15748;SDS011;7976;52.526;13.326;2023-02-28T14:56:29;27.50;;;11.10;;
15748;SDS011;7976;52.526;13.326;2023-02-28T14:59:01;13.15;;;4.70;;
15748;SDS011;7976;52.526;13.326;2023-02-28T15:01:30;25.98;;;11.77;;
15748;SDS011;7976;52.526;13.326;2023-02-28T15:03:59;12.43;;;4.32;;
15748;SDS011;7976;52.526;13.326;2023-02-28T15:06:29;27.50;;;12.65;;
15748;SDS011;7976;52.526;13.326;2023-02-28T15:09:07;22.23;;;9.30;;
15748;SDS011;7976;52.526;13.326;2023-02-28T15:11:36;11.88;;;4.35;;
15748;SDS011;7976;52.526;13.326;2023-02-28T15:14:05;14.70;;;4.93;;
15748;SDS011;7976;52.526;13.326;2023-02-28T15:16:35;9.35;;;3.65;;
15748;SDS011;7976;52.526;13.326;2023-02-28T15:19:07;12.77;;;4.60;;
15748;SDS011;7976;52.526;13.326;2023-02-28T15:21:47;23.75;;;8.90;;
15748;SDS011;7976;52.526;13.326;2023-02-28T15:24:19;19.00;;;7.32;;
15748;SDS011;7976;52.526;13.326;2023-02-28T15:26:53;12.95;;;4.13;;
15748;SDS011;7976;52.526;13.326;2023-02-28T15:29:24;10.55;;;3.83;;
15748;SDS011;7976;52.526;13.326;2023-02-28T15:31:56;35.75;;;14.20;;
15748;SDS011;7976;52.526;13.326;2023-02-28T15:34:30;22.15;;;7.35;;
15748;SDS011;7976;52.526;13.326;2023-02-28T15:37:01;11.93;;;3.90;;
15748;SDS011;7976;52.526;13.326;2023-02-28T15:39:55;11.57;;;3.47;;
15748;SDS011;7976;52.526;13.326;2023-02-28T15:42:29;9.98;;;3.42;;
15748;SDS011;7976;52.526;13.326;2023-02-28T15:44:57;12.38;;;4.47;;
15748;SDS011;7976;52.526;13.326;2023-02-28T15:47:27;36.13;;;14.18;;